sensor_id;sensor_type;location;lat;lon;timestamp;P1;durP1;ratioP1;P2;durP2;ratioP2
56171;SDS011;42052;41.634;-0.946;2024-01-11T00:00:48;1.40;;;1.20;;
56171;SDS011;42052;41.634;-0.946;2024-01-11T00:03:14;2.00;;;1.23;;
56171;SDS011;42052;41.634;-0.946;2024-01-11T00:05:40;1.42;;;0.95;;
56171;SDS011;42052;41.634;-0.946;2024-01-11T00:08:07;1.30;;;1.20;;
56171;SDS011;42052;41.634;-0.946;2024-01-11T00:10:33;2.13;;;1.10;;
56171;SDS011;42052;41.634;-0.946;2024-01-11T00:12:58;1.30;;;1.00;;
56171;SDS011;42052;41.634;-0.946;2024-01-11T00:15:24;1.40;;;1.08;;
56171;SDS011;42052;41.634;-0.946;2024-01-11T00:17:50;1.85;;;1.30;;
56171;SDS011;42052;41.634;-0.946;2024-01-11T00:20:16;1.85;;;1.20;;
56171;SDS011;42052;41.634;-0.946;2024-01-11T00:22:42;1.92;;;1.20;;
56171;SDS011;42052;41.634;-0.946;2024-01-11T00:25:08;1.20;;;1.00;;
56171;SDS011;42052;41.634;-0.946;2024-01-11T00:27:34;1.60;;;1.17;;
56171;SDS011;42052;41.634;-0.946;2024-01-11T00:30:00;1.27;;;1.10;;
56171;SDS011;42052;41.634;-0.946;2024-01-11T00:32:25;1.63;;;1.13;;
56171;SDS011;42052;41.634;-0.946;2024-01-11T00:34:51;1.15;;;1.00;;
56171;SDS011;42052;41.634;-0.946;2024-01-11T00:37:17;2.47;;;1.25;;
56171;SDS011;42052;41.634;-0.946;2024-01-11T00:39:43;1.40;;;1.20;;
56171;SDS011;42052;41.634;-0.946;2024-01-11T00:42:09;1.65;;;1.20;;
56171;SDS011;42052;41.634;-0.946;2024-01-11T00:44:35;1.30;;;1.00;;
56171;SDS011;42052;41.634;-0.946;2024-01-11T00:47:01;2.63;;;1.10;;
56171;SDS011;42052;41.634;-0.946;2024-01-11T00:49:27;1.40;;;1.20;;
56171;SDS011;42052;41.634;-0.946;2024-01-11T00:51:52;1.23;;;1.10;;
56171;SDS011;42052;41.634;-0.946;2024-01-11T00:54:18;1.30;;;1.10;;
56171;SDS011;42052;41.634;-0.946;2024-01-11T00:56:45;1.13;;;1.00;;
56171;SDS011;42052;41.634;-0.946;2024-01-11T00:59:11;1.35;;;1.08;;
56171;SDS011;42052;41.634;-0.946;2024-01-11T01:01:36;2.13;;;1.33;;
56171;SDS011;42052;41.634;-0.946;2024-01-11T01:04:03;1.10;;;1.00;;
56171;SDS011;42052;41.634;-0.946;2024-01-11T01:06:29;1.55;;;1.10;;
56171;SDS011;42052;41.634;-0.946;2024-01-11T01:08:55;2.05;;;1.13;;
56171;SDS011;42052;41.634;-0.946;2024-01-11T01:11:21;1.02;;;0.90;;
56171;SDS011;42052;41.634;-0.946;2024-01-11T01:13:47;1.80;;;1.25;;
56171;SDS011;42052;41.634;-0.946;2024-01-11T01:16:13;1.77;;;0.95;;
56171;SDS011;42052;41.634;-0.946;2024-01-11T01:18:40;1.80;;;0.90;;
56171;SDS011;42052;41.634;-0.946;2024-01-11T01:21:05;1.10;;;1.00;;
56171;SDS011;42052;41.634;-0.946;2024-01-11T01:23:32;1.10;;;1.00;;
56171;SDS011;42052;41.634;-0.946;2024-01-11T01:25:58;1.38;;;1.10;;
56171;SDS011;42052;41.634;-0.946;2024-01-11T01:28:23;1.08;;;0.98;;
56171;SDS011;42052;41.634;-0.946;2024-01-11T01:30:49;2.55;;;1.10;;
56171;SDS011;42052;41.634;-0.946;2024-01-11T01:33:15;2.53;;;1.20;;
56171;SDS011;42052;41.634;-0.946;2024-01-11T01:35:41;1.35;;;1.13;;
56171;SDS011;42052;41.634;-0.946;2024-01-11T01:38:07;1.20;;;1.10;;
56171;SDS011;42052;41.634;-0.946;2024-01-11T01:40:33;1.10;;;1.00;;
56171;SDS011;42052;41.634;-0.946;2024-01-11T01:42:59;1.20;;;1.00;;
56171;SDS011;42052;41.634;-0.946;2024-01-11T01:45:25;3.42;;;0.93;;
56171;SDS011;42052;41.634;-0.946;2024-01-11T01:47:52;2.15;;;0.90;;
56171;SDS011;42052;41.634;-0.946;2024-01-11T01:50:20;1.50;;;0.90;;
56171;SDS011;42052;41.634;-0.946;2024-01-11T01:52:46;1.65;;;1.05;;
56171;SDS011;42052;41.634;-0.946;2024-01-11T01:55:14;1.48;;;0.85;;
56171;SDS011;42052;41.634;-0.946;2024-01-11T01:57:41;2.65;;;0.90;;
56171;SDS011;42052;41.634;-0.946;2024-01-11T02:00:09;1.88;;;0.90;;
56171;SDS011;42052;41.634;-0.946;2024-01-11T02:02:36;1.83;;;1.00;;
56171;SDS011;42052;41.634;-0.946;2024-01-11T02:05:05;1.20;;;1.10;;
56171;SDS011;42052;41.634;-0.946;2024-01-11T02:07:31;0.88;;;0.88;;
56171;SDS011;42052;41.634;-0.946;2024-01-11T02:09:58;1.15;;;1.00;;
56171;SDS011;42052;41.634;-0.946;2024-01-11T02:12:24;0.98;;;0.90;;
56171;SDS011;42052;41.634;-0.946;2024-01-11T02:14:52;1.33;;;1.00;;
56171;SDS011;42052;41.634;-0.946;2024-01-11T02:17:18;1.23;;;1.00;;
56171;SDS011;42052;41.634;-0.946;2024-01-11T02:19:44;1.92;;;1.10;;
56171;SDS011;42052;41.634;-0.946;2024-01-11T02:22:13;2.53;;;1.00;;
56171;SDS011;42052;41.634;-0.946;2024-01-11T02:24:45;1.73;;;0.98;;
56171;SDS011;42052;41.634;-0.946;2024-01-11T02:27:11;1.20;;;1.10;;
56171;SDS011;42052;41.634;-0.946;2024-01-11T02:29:37;1.40;;;1.00;;
56171;SDS011;42052;41.634;-0.946;2024-01-11T02:32:03;1.05;;;0.80;;
56171;SDS011;42052;41.634;-0.946;2024-01-11T02:34:32;1.30;;;1.08;;
56171;SDS011;42052;41.634;-0.946;2024-01-11T02:36:59;1.45;;;1.00;;
56171;SDS011;42052;41.634;-0.946;2024-01-11T02:39:25;1.10;;;1.00;;
56171;SDS011;42052;41.634;-0.946;2024-01-11T02:41:52;1.10;;;1.00;;
56171;SDS011;42052;41.634;-0.946;2024-01-11T02:44:18;1.52;;;0.90;;
56171;SDS011;42052;41.634;-0.946;2024-01-11T02:46:44;1.15;;;0.90;;
56171;SDS011;42052;41.634;-0.946;2024-01-11T02:49:10;0.80;;;0.80;;
56171;SDS011;42052;41.634;-0.946;2024-01-11T02:51:36;1.77;;;1.00;;
56171;SDS011;42052;41.634;-0.946;2024-01-11T02:54:02;0.88;;;0.77;;
56171;SDS011;42052;41.634;-0.946;2024-01-11T02:56:28;1.08;;;0.90;;
56171;SDS011;42052;41.634;-0.946;2024-01-11T02:58:54;1.17;;;0.88;;
56171;SDS011;42052;41.634;-0.946;2024-01-11T03:01:20;1.15;;;0.90;;
56171;SDS011;42052;41.634;-0.946;2024-01-11T03:03:46;0.80;;;0.80;;
56171;SDS011;42052;41.634;-0.946;2024-01-11T03:06:11;1.83;;;0.70;;
56171;SDS011;42052;41.634;-0.946;2024-01-11T03:08:37;1.65;;;0.90;;
56171;SDS011;42052;41.634;-0.946;2024-01-11T03:11:03;1.02;;;0.88;;
56171;SDS011;42052;41.634;-0.946;2024-01-11T03:13:29;0.70;;;0.70;;
56171;SDS011;42052;41.634;-0.946;2024-01-11T03:15:56;1.10;;;0.80;;
56171;SDS011;42052;41.634;-0.946;2024-01-11T03:18:22;1.00;;;0.90;;
56171;SDS011;42052;41.634;-0.946;2024-01-11T03:20:48;1.95;;;0.85;;
56171;SDS011;42052;41.634;-0.946;2024-01-11T03:23:14;1.45;;;0.80;;
56171;SDS011;42052;41.634;-0.946;2024-01-11T03:25:40;1.00;;;0.80;;
56171;SDS011;42052;41.634;-0.946;2024-01-11T03:28:06;0.95;;;0.85;;
56171;SDS011;42052;41.634;-0.946;2024-01-11T03:30:32;0.88;;;0.82;;
56171;SDS011;42052;41.634;-0.946;2024-01-11T03:32:57;1.30;;;0.80;;
56171;SDS011;42052;41.634;-0.946;2024-01-11T03:35:23;1.05;;;0.82;;
56171;SDS011;42052;41.634;-0.946;2024-01-11T03:37:49;1.10;;;0.80;;
56171;SDS011;42052;41.634;-0.946;2024-01-11T03:40:19;1.23;;;0.80;;
56171;SDS011;42052;41.634;-0.946;2024-01-11T03:42:45;0.70;;;0.70;;
56171;SDS011;42052;41.634;-0.946;2024-01-11T03:45:11;0.77;;;0.77;;
56171;SDS011;42052;41.634;-0.946;2024-01-11T03:47:37;0.80;;;0.80;;
56171;SDS011;42052;41.634;-0.946;2024-01-11T03:50:03;1.40;;;0.80;;
56171;SDS011;42052;41.634;-0.946;2024-01-11T03:52:29;0.85;;;0.80;;
56171;SDS011;42052;41.634;-0.946;2024-01-11T03:54:55;1.45;;;0.77;;
56171;SDS011;42052;41.634;-0.946;2024-01-11T03:57:21;1.08;;;0.80;;
56171;SDS011;42052;41.634;-0.946;2024-01-11T03:59:47;0.82;;;0.80;;
56171;SDS011;42052;41.634;-0.946;2024-01-11T04:02:13;0.70;;;0.70;;
56171;SDS011;42052;41.634;-0.946;2024-01-11T04:04:40;0.98;;;0.88;;
56171;SDS011;42052;41.634;-0.946;2024-01-11T04:07:06;1.13;;;0.80;;
56171;SDS011;42052;41.634;-0.946;2024-01-11T04:09:32;1.80;;;0.60;;
56171;SDS011;42052;41.634;-0.946;2024-01-11T04:11:58;1.20;;;0.82;;
56171;SDS011;42052;41.634;-0.946;2024-01-11T04:14:24;1.00;;;0.90;;
56171;SDS011;42052;41.634;-0.946;2024-01-11T04:16:49;0.80;;;0.80;;
56171;SDS011;42052;41.634;-0.946;2024-01-11T04:19:15;0.70;;;0.70;;
56171;SDS011;42052;41.634;-0.946;2024-01-11T04:21:41;1.27;;;0.75;;
56171;SDS011;42052;41.634;-0.946;2024-01-11T04:24:07;1.00;;;0.70;;
56171;SDS011;42052;41.634;-0.946;2024-01-11T04:26:32;0.93;;;0.65;;
56171;SDS011;42052;41.634;-0.946;2024-01-11T04:28:58;0.95;;;0.80;;
56171;SDS011;42052;41.634;-0.946;2024-01-11T04:31:25;1.10;;;0.80;;
56171;SDS011;42052;41.634;-0.946;2024-01-11T04:33:52;1.30;;;0.77;;
56171;SDS011;42052;41.634;-0.946;2024-01-11T04:36:18;1.02;;;0.80;;
56171;SDS011;42052;41.634;-0.946;2024-01-11T04:38:44;0.73;;;0.68;;
56171;SDS011;42052;41.634;-0.946;2024-01-11T04:41:12;1.00;;;0.80;;
56171;SDS011;42052;41.634;-0.946;2024-01-11T04:43:41;0.95;;;0.90;;
56171;SDS011;42052;41.634;-0.946;2024-01-11T04:46:14;0.93;;;0.70;;
56171;SDS011;42052;41.634;-0.946;2024-01-11T04:48:47;0.60;;;0.60;;
56171;SDS011;42052;41.634;-0.946;2024-01-11T04:51:14;0.80;;;0.80;;
56171;SDS011;42052;41.634;-0.946;2024-01-11T04:53:41;1.00;;;0.90;;
56171;SDS011;42052;41.634;-0.946;2024-01-11T04:56:13;0.80;;;0.80;;
56171;SDS011;42052;41.634;-0.946;2024-01-11T04:58:40;0.85;;;0.70;;
56171;SDS011;42052;41.634;-0.946;2024-01-11T05:01:17;1.02;;;0.70;;
56171;SDS011;42052;41.634;-0.946;2024-01-11T05:03:43;0.85;;;0.70;;
56171;SDS011;42052;41.634;-0.946;2024-01-11T05:06:17;0.80;;;0.70;;
56171;SDS011;42052;41.634;-0.946;2024-01-11T05:08:44;0.75;;;0.70;;
56171;SDS011;42052;41.634;-0.946;2024-01-11T05:11:17;0.82;;;0.80;;
56171;SDS011;42052;41.634;-0.946;2024-01-11T05:13:44;0.80;;;0.70;;
56171;SDS011;42052;41.634;-0.946;2024-01-11T05:16:22;0.82;;;0.77;;
56171;SDS011;42052;41.634;-0.946;2024-01-11T05:18:50;0.80;;;0.70;;
56171;SDS011;42052;41.634;-0.946;2024-01-11T05:21:16;0.60;;;0.60;;
56171;SDS011;42052;41.634;-0.946;2024-01-11T05:23:42;1.20;;;0.70;;
56171;SDS011;42052;41.634;-0.946;2024-01-11T05:26:08;0.80;;;0.80;;
56171;SDS011;42052;41.634;-0.946;2024-01-11T05:28:35;0.70;;;0.60;;
56171;SDS011;42052;41.634;-0.946;2024-01-11T05:31:01;1.00;;;0.73;;
56171;SDS011;42052;41.634;-0.946;2024-01-11T05:33:27;1.13;;;0.75;;
56171;SDS011;42052;41.634;-0.946;2024-01-11T05:35:53;1.15;;;0.82;;
56171;SDS011;42052;41.634;-0.946;2024-01-11T05:38:19;1.05;;;0.60;;
56171;SDS011;42052;41.634;-0.946;2024-01-11T05:40:45;0.60;;;0.60;;
56171;SDS011;42052;41.634;-0.946;2024-01-11T05:43:11;1.80;;;0.85;;
56171;SDS011;42052;41.634;-0.946;2024-01-11T05:45:37;0.95;;;0.80;;
56171;SDS011;42052;41.634;-0.946;2024-01-11T05:48:02;0.65;;;0.60;;
56171;SDS011;42052;41.634;-0.946;2024-01-11T05:50:31;0.70;;;0.70;;
56171;SDS011;42052;41.634;-0.946;2024-01-11T05:52:57;0.73;;;0.70;;
56171;SDS011;42052;41.634;-0.946;2024-01-11T05:55:23;0.60;;;0.60;;
56171;SDS011;42052;41.634;-0.946;2024-01-11T05:57:49;1.60;;;0.70;;
56171;SDS011;42052;41.634;-0.946;2024-01-11T06:00:15;0.60;;;0.60;;
56171;SDS011;42052;41.634;-0.946;2024-01-11T06:02:41;0.65;;;0.65;;
56171;SDS011;42052;41.634;-0.946;2024-01-11T06:05:07;2.78;;;0.70;;
56171;SDS011;42052;41.634;-0.946;2024-01-11T06:07:34;0.75;;;0.70;;
56171;SDS011;42052;41.634;-0.946;2024-01-11T06:10:01;1.88;;;0.82;;
56171;SDS011;42052;41.634;-0.946;2024-01-11T06:12:28;1.75;;;0.77;;
56171;SDS011;42052;41.634;-0.946;2024-01-11T06:14:54;0.88;;;0.60;;
56171;SDS011;42052;41.634;-0.946;2024-01-11T06:17:20;1.50;;;0.80;;
56171;SDS011;42052;41.634;-0.946;2024-01-11T06:19:45;1.17;;;0.70;;
56171;SDS011;42052;41.634;-0.946;2024-01-11T06:22:11;1.40;;;0.65;;
56171;SDS011;42052;41.634;-0.946;2024-01-11T06:24:37;5.80;;;0.77;;
56171;SDS011;42052;41.634;-0.946;2024-01-11T06:27:03;0.70;;;0.70;;
56171;SDS011;42052;41.634;-0.946;2024-01-11T06:29:29;1.05;;;0.77;;
56171;SDS011;42052;41.634;-0.946;2024-01-11T06:31:55;2.78;;;0.80;;
56171;SDS011;42052;41.634;-0.946;2024-01-11T06:34:21;0.95;;;0.75;;
56171;SDS011;42052;41.634;-0.946;2024-01-11T06:36:46;0.70;;;0.70;;
56171;SDS011;42052;41.634;-0.946;2024-01-11T06:39:12;2.00;;;0.60;;
56171;SDS011;42052;41.634;-0.946;2024-01-11T06:41:38;1.00;;;0.70;;
56171;SDS011;42052;41.634;-0.946;2024-01-11T06:44:04;1.02;;;0.70;;
56171;SDS011;42052;41.634;-0.946;2024-01-11T06:46:30;0.88;;;0.60;;
56171;SDS011;42052;41.634;-0.946;2024-01-11T06:48:56;0.68;;;0.68;;
56171;SDS011;42052;41.634;-0.946;2024-01-11T06:51:22;1.50;;;0.60;;
56171;SDS011;42052;41.634;-0.946;2024-01-11T06:53:48;0.85;;;0.80;;
56171;SDS011;42052;41.634;-0.946;2024-01-11T06:56:15;1.58;;;0.80;;
56171;SDS011;42052;41.634;-0.946;2024-01-11T06:58:45;1.02;;;0.90;;
56171;SDS011;42052;41.634;-0.946;2024-01-11T07:01:11;0.70;;;0.70;;
56171;SDS011;42052;41.634;-0.946;2024-01-11T07:03:38;0.95;;;0.75;;
56171;SDS011;42052;41.634;-0.946;2024-01-11T07:06:04;0.60;;;0.60;;
56171;SDS011;42052;41.634;-0.946;2024-01-11T07:08:30;1.50;;;0.90;;
56171;SDS011;42052;41.634;-0.946;2024-01-11T07:10:57;0.82;;;0.80;;
56171;SDS011;42052;41.634;-0.946;2024-01-11T07:13:25;0.70;;;0.70;;
56171;SDS011;42052;41.634;-0.946;2024-01-11T07:15:51;0.60;;;0.60;;
56171;SDS011;42052;41.634;-0.946;2024-01-11T07:18:17;1.02;;;0.80;;
56171;SDS011;42052;41.634;-0.946;2024-01-11T07:20:43;1.00;;;0.90;;
56171;SDS011;42052;41.634;-0.946;2024-01-11T07:23:09;0.77;;;0.75;;
56171;SDS011;42052;41.634;-0.946;2024-01-11T07:25:35;1.17;;;0.77;;
56171;SDS011;42052;41.634;-0.946;2024-01-11T07:28:01;0.85;;;0.70;;
56171;SDS011;42052;41.634;-0.946;2024-01-11T07:30:27;1.98;;;1.05;;
56171;SDS011;42052;41.634;-0.946;2024-01-11T07:32:53;1.50;;;0.60;;
56171;SDS011;42052;41.634;-0.946;2024-01-11T07:35:19;1.00;;;0.85;;
56171;SDS011;42052;41.634;-0.946;2024-01-11T07:37:45;1.77;;;0.80;;
56171;SDS011;42052;41.634;-0.946;2024-01-11T07:40:11;1.08;;;0.80;;
56171;SDS011;42052;41.634;-0.946;2024-01-11T07:42:38;2.13;;;0.73;;
56171;SDS011;42052;41.634;-0.946;2024-01-11T07:45:05;1.60;;;0.65;;
56171;SDS011;42052;41.634;-0.946;2024-01-11T07:47:32;1.00;;;0.60;;
56171;SDS011;42052;41.634;-0.946;2024-01-11T07:49:58;1.08;;;0.80;;
56171;SDS011;42052;41.634;-0.946;2024-01-11T07:52:25;1.10;;;0.80;;
56171;SDS011;42052;41.634;-0.946;2024-01-11T07:54:50;0.90;;;0.75;;
56171;SDS011;42052;41.634;-0.946;2024-01-11T07:57:16;0.77;;;0.70;;
56171;SDS011;42052;41.634;-0.946;2024-01-11T07:59:42;1.10;;;0.82;;
56171;SDS011;42052;41.634;-0.946;2024-01-11T08:02:08;0.85;;;0.77;;
56171;SDS011;42052;41.634;-0.946;2024-01-11T08:04:34;2.80;;;0.82;;
56171;SDS011;42052;41.634;-0.946;2024-01-11T08:06:59;1.10;;;0.80;;
56171;SDS011;42052;41.634;-0.946;2024-01-11T08:09:27;1.10;;;0.90;;
56171;SDS011;42052;41.634;-0.946;2024-01-11T08:11:53;4.38;;;0.90;;
56171;SDS011;42052;41.634;-0.946;2024-01-11T08:14:20;1.90;;;0.80;;
56171;SDS011;42052;41.634;-0.946;2024-01-11T08:16:46;1.50;;;0.73;;
56171;SDS011;42052;41.634;-0.946;2024-01-11T08:19:12;0.90;;;0.70;;
56171;SDS011;42052;41.634;-0.946;2024-01-11T08:21:42;1.92;;;0.70;;
56171;SDS011;42052;41.634;-0.946;2024-01-11T08:24:08;1.10;;;0.80;;
56171;SDS011;42052;41.634;-0.946;2024-01-11T08:26:33;1.00;;;0.80;;
56171;SDS011;42052;41.634;-0.946;2024-01-11T08:28:59;1.45;;;0.70;;
56171;SDS011;42052;41.634;-0.946;2024-01-11T08:31:25;1.30;;;0.77;;
56171;SDS011;42052;41.634;-0.946;2024-01-11T08:33:51;1.27;;;1.00;;
56171;SDS011;42052;41.634;-0.946;2024-01-11T08:36:18;1.50;;;1.00;;
56171;SDS011;42052;41.634;-0.946;2024-01-11T08:38:44;0.88;;;0.73;;
56171;SDS011;42052;41.634;-0.946;2024-01-11T08:41:09;0.80;;;0.80;;
56171;SDS011;42052;41.634;-0.946;2024-01-11T08:43:35;0.93;;;0.80;;
56171;SDS011;42052;41.634;-0.946;2024-01-11T08:46:01;1.00;;;0.90;;
56171;SDS011;42052;41.634;-0.946;2024-01-11T08:48:27;0.93;;;0.80;;
56171;SDS011;42052;41.634;-0.946;2024-01-11T08:50:54;1.08;;;0.88;;
56171;SDS011;42052;41.634;-0.946;2024-01-11T08:53:19;1.60;;;0.70;;
56171;SDS011;42052;41.634;-0.946;2024-01-11T08:55:46;2.17;;;0.90;;
56171;SDS011;42052;41.634;-0.946;2024-01-11T08:58:12;1.00;;;0.80;;
56171;SDS011;42052;41.634;-0.946;2024-01-11T09:00:38;1.20;;;0.80;;
56171;SDS011;42052;41.634;-0.946;2024-01-11T09:03:04;2.05;;;1.00;;
56171;SDS011;42052;41.634;-0.946;2024-01-11T09:05:30;1.25;;;0.90;;
56171;SDS011;42052;41.634;-0.946;2024-01-11T09:07:56;2.05;;;1.02;;
56171;SDS011;42052;41.634;-0.946;2024-01-11T09:10:22;1.77;;;0.80;;
56171;SDS011;42052;41.634;-0.946;2024-01-11T09:12:48;1.60;;;0.90;;
56171;SDS011;42052;41.634;-0.946;2024-01-11T09:15:14;0.77;;;0.77;;
56171;SDS011;42052;41.634;-0.946;2024-01-11T09:17:40;1.05;;;0.70;;
56171;SDS011;42052;41.634;-0.946;2024-01-11T09:20:06;1.23;;;0.80;;
56171;SDS011;42052;41.634;-0.946;2024-01-11T09:22:32;3.03;;;0.80;;
56171;SDS011;42052;41.634;-0.946;2024-01-11T09:24:58;0.82;;;0.80;;
56171;SDS011;42052;41.634;-0.946;2024-01-11T09:27:24;1.38;;;0.88;;
56171;SDS011;42052;41.634;-0.946;2024-01-11T09:29:50;1.05;;;0.88;;
56171;SDS011;42052;41.634;-0.946;2024-01-11T09:32:16;1.00;;;0.88;;
56171;SDS011;42052;41.634;-0.946;2024-01-11T09:34:42;1.23;;;0.90;;
56171;SDS011;42052;41.634;-0.946;2024-01-11T09:37:10;5.85;;;0.80;;
56171;SDS011;42052;41.634;-0.946;2024-01-11T09:39:36;0.73;;;0.60;;
56171;SDS011;42052;41.634;-0.946;2024-01-11T09:42:08;1.60;;;0.73;;
56171;SDS011;42052;41.634;-0.946;2024-01-11T09:44:35;1.73;;;0.88;;
56171;SDS011;42052;41.634;-0.946;2024-01-11T09:47:08;1.25;;;0.88;;
56171;SDS011;42052;41.634;-0.946;2024-01-11T09:49:38;2.63;;;0.82;;
56171;SDS011;42052;41.634;-0.946;2024-01-11T09:52:06;1.40;;;0.82;;
56171;SDS011;42052;41.634;-0.946;2024-01-11T09:54:35;4.07;;;0.82;;
56171;SDS011;42052;41.634;-0.946;2024-01-11T09:57:01;2.58;;;0.70;;
56171;SDS011;42052;41.634;-0.946;2024-01-11T09:59:29;0.70;;;0.65;;
56171;SDS011;42052;41.634;-0.946;2024-01-11T10:01:55;1.50;;;0.80;;
56171;SDS011;42052;41.634;-0.946;2024-01-11T10:04:22;1.73;;;0.90;;
56171;SDS011;42052;41.634;-0.946;2024-01-11T10:06:49;2.22;;;0.80;;
56171;SDS011;42052;41.634;-0.946;2024-01-11T10:09:17;1.65;;;0.80;;
56171;SDS011;42052;41.634;-0.946;2024-01-11T10:11:43;1.67;;;0.70;;
56171;SDS011;42052;41.634;-0.946;2024-01-11T10:14:10;0.98;;;0.80;;
56171;SDS011;42052;41.634;-0.946;2024-01-11T10:16:41;1.38;;;0.85;;
56171;SDS011;42052;41.634;-0.946;2024-01-11T10:19:10;3.20;;;0.88;;
56171;SDS011;42052;41.634;-0.946;2024-01-11T10:21:38;0.90;;;0.60;;
56171;SDS011;42052;41.634;-0.946;2024-01-11T10:24:04;2.25;;;0.90;;
56171;SDS011;42052;41.634;-0.946;2024-01-11T10:26:30;1.27;;;0.73;;
56171;SDS011;42052;41.634;-0.946;2024-01-11T10:28:58;1.15;;;0.88;;
56171;SDS011;42052;41.634;-0.946;2024-01-11T10:31:28;1.48;;;0.70;;
56171;SDS011;42052;41.634;-0.946;2024-01-11T10:33:54;3.08;;;1.00;;
56171;SDS011;42052;41.634;-0.946;2024-01-11T10:36:20;0.70;;;0.70;;
56171;SDS011;42052;41.634;-0.946;2024-01-11T10:38:47;1.10;;;0.80;;
56171;SDS011;42052;41.634;-0.946;2024-01-11T10:41:13;2.00;;;1.00;;
56171;SDS011;42052;41.634;-0.946;2024-01-11T10:43:44;1.38;;;0.80;;
56171;SDS011;42052;41.634;-0.946;2024-01-11T10:46:13;0.80;;;0.60;;
56171;SDS011;42052;41.634;-0.946;2024-01-11T10:48:43;1.25;;;0.60;;
56171;SDS011;42052;41.634;-0.946;2024-01-11T10:51:12;0.70;;;0.70;;
56171;SDS011;42052;41.634;-0.946;2024-01-11T10:53:44;0.93;;;0.70;;
56171;SDS011;42052;41.634;-0.946;2024-01-11T10:56:11;2.15;;;0.70;;
56171;SDS011;42052;41.634;-0.946;2024-01-11T10:58:39;2.15;;;0.82;;
56171;SDS011;42052;41.634;-0.946;2024-01-11T11:01:06;1.13;;;0.70;;
56171;SDS011;42052;41.634;-0.946;2024-01-11T11:03:33;1.98;;;0.90;;
56171;SDS011;42052;41.634;-0.946;2024-01-11T11:06:01;2.97;;;0.82;;
56171;SDS011;42052;41.634;-0.946;2024-01-11T11:08:27;3.83;;;0.80;;
56171;SDS011;42052;41.634;-0.946;2024-01-11T11:10:56;1.15;;;0.80;;
56171;SDS011;42052;41.634;-0.946;2024-01-11T11:13:24;2.60;;;0.93;;
56171;SDS011;42052;41.634;-0.946;2024-01-11T11:15:51;1.15;;;0.77;;
56171;SDS011;42052;41.634;-0.946;2024-01-11T11:18:18;1.80;;;0.70;;
56171;SDS011;42052;41.634;-0.946;2024-01-11T11:20:46;2.53;;;0.90;;
56171;SDS011;42052;41.634;-0.946;2024-01-11T11:23:14;0.98;;;0.80;;
56171;SDS011;42052;41.634;-0.946;2024-01-11T11:25:42;3.28;;;1.05;;
56171;SDS011;42052;41.634;-0.946;2024-01-11T11:28:14;3.33;;;1.10;;
56171;SDS011;42052;41.634;-0.946;2024-01-11T11:33:19;1.85;;;0.80;;
56171;SDS011;42052;41.634;-0.946;2024-01-11T11:35:52;3.80;;;0.80;;
56171;SDS011;42052;41.634;-0.946;2024-01-11T11:38:22;2.45;;;0.80;;
56171;SDS011;42052;41.634;-0.946;2024-01-11T11:40:51;1.60;;;0.70;;
56171;SDS011;42052;41.634;-0.946;2024-01-11T11:43:19;1.63;;;0.88;;
56171;SDS011;42052;41.634;-0.946;2024-01-11T11:45:46;1.13;;;0.80;;
56171;SDS011;42052;41.634;-0.946;2024-01-11T11:51:27;2.72;;;0.80;;
56171;SDS011;42052;41.634;-0.946;2024-01-11T11:53:48;1.65;;;0.70;;
56171;SDS011;42052;41.634;-0.946;2024-01-11T11:56:22;1.45;;;0.80;;
56171;SDS011;42052;41.634;-0.946;2024-01-11T11:58:48;0.68;;;0.60;;
56171;SDS011;42052;41.634;-0.946;2024-01-11T12:01:23;2.50;;;0.90;;
56171;SDS011;42052;41.634;-0.946;2024-01-11T12:03:49;2.67;;;0.75;;
56171;SDS011;42052;41.634;-0.946;2024-01-11T12:06:16;1.92;;;0.73;;
56171;SDS011;42052;41.634;-0.946;2024-01-11T12:08:44;1.05;;;0.73;;
56171;SDS011;42052;41.634;-0.946;2024-01-11T12:11:28;2.22;;;0.70;;
56171;SDS011;42052;41.634;-0.946;2024-01-11T12:13:54;1.15;;;0.80;;
56171;SDS011;42052;41.634;-0.946;2024-01-11T12:16:22;1.10;;;0.80;;
56171;SDS011;42052;41.634;-0.946;2024-01-11T12:18:48;0.75;;;0.70;;
56171;SDS011;42052;41.634;-0.946;2024-01-11T12:21:14;0.90;;;0.80;;
56171;SDS011;42052;41.634;-0.946;2024-01-11T12:23:42;1.50;;;0.73;;
56171;SDS011;42052;41.634;-0.946;2024-01-11T12:26:09;1.30;;;0.90;;
56171;SDS011;42052;41.634;-0.946;2024-01-11T12:28:38;1.17;;;0.70;;
56171;SDS011;42052;41.634;-0.946;2024-01-11T12:31:05;0.63;;;0.57;;
56171;SDS011;42052;41.634;-0.946;2024-01-11T12:33:31;1.60;;;0.70;;
56171;SDS011;42052;41.634;-0.946;2024-01-11T12:36:00;1.55;;;0.80;;
56171;SDS011;42052;41.634;-0.946;2024-01-11T12:38:26;0.90;;;0.70;;
56171;SDS011;42052;41.634;-0.946;2024-01-11T12:40:52;0.98;;;0.50;;
56171;SDS011;42052;41.634;-0.946;2024-01-11T12:43:18;1.13;;;0.75;;
56171;SDS011;42052;41.634;-0.946;2024-01-11T12:45:44;1.25;;;0.80;;
56171;SDS011;42052;41.634;-0.946;2024-01-11T12:48:10;0.77;;;0.70;;
56171;SDS011;42052;41.634;-0.946;2024-01-11T12:50:40;1.20;;;0.80;;
56171;SDS011;42052;41.634;-0.946;2024-01-11T12:55:45;1.30;;;0.90;;
56171;SDS011;42052;41.634;-0.946;2024-01-11T12:58:12;1.10;;;0.80;;
56171;SDS011;42052;41.634;-0.946;2024-01-11T13:00:39;1.20;;;0.80;;
56171;SDS011;42052;41.634;-0.946;2024-01-11T13:03:05;2.15;;;0.70;;
56171;SDS011;42052;41.634;-0.946;2024-01-11T13:05:31;1.10;;;0.80;;
56171;SDS011;42052;41.634;-0.946;2024-01-11T13:08:00;1.73;;;0.70;;
56171;SDS011;42052;41.634;-0.946;2024-01-11T13:10:37;0.90;;;0.80;;
56171;SDS011;42052;41.634;-0.946;2024-01-11T13:13:03;0.63;;;0.63;;
56171;SDS011;42052;41.634;-0.946;2024-01-11T13:15:30;0.90;;;0.80;;
56171;SDS011;42052;41.634;-0.946;2024-01-11T13:17:57;0.93;;;0.70;;
56171;SDS011;42052;41.634;-0.946;2024-01-11T13:20:24;1.30;;;0.90;;
56171;SDS011;42052;41.634;-0.946;2024-01-11T13:22:53;1.85;;;0.70;;
56171;SDS011;42052;41.634;-0.946;2024-01-11T13:25:36;1.17;;;0.70;;
56171;SDS011;42052;41.634;-0.946;2024-01-11T13:28:02;2.33;;;0.90;;
56171;SDS011;42052;41.634;-0.946;2024-01-11T13:30:28;1.48;;;0.90;;
56171;SDS011;42052;41.634;-0.946;2024-01-11T13:32:54;0.82;;;0.80;;
56171;SDS011;42052;41.634;-0.946;2024-01-11T13:35:20;1.83;;;0.95;;
56171;SDS011;42052;41.634;-0.946;2024-01-11T13:37:46;1.10;;;0.70;;
56171;SDS011;42052;41.634;-0.946;2024-01-11T13:40:12;1.48;;;0.80;;
56171;SDS011;42052;41.634;-0.946;2024-01-11T13:42:39;0.70;;;0.70;;
56171;SDS011;42052;41.634;-0.946;2024-01-11T13:45:05;2.15;;;0.80;;
56171;SDS011;42052;41.634;-0.946;2024-01-11T13:47:34;1.50;;;0.80;;
56171;SDS011;42052;41.634;-0.946;2024-01-11T13:50:03;1.00;;;0.70;;
56171;SDS011;42052;41.634;-0.946;2024-01-11T13:52:29;1.15;;;0.88;;
56171;SDS011;42052;41.634;-0.946;2024-01-11T13:54:55;1.35;;;0.90;;
56171;SDS011;42052;41.634;-0.946;2024-01-11T13:57:22;1.38;;;0.80;;
56171;SDS011;42052;41.634;-0.946;2024-01-11T13:59:48;1.35;;;0.90;;
56171;SDS011;42052;41.634;-0.946;2024-01-11T14:02:14;1.30;;;0.80;;
56171;SDS011;42052;41.634;-0.946;2024-01-11T14:04:40;1.50;;;0.90;;
56171;SDS011;42052;41.634;-0.946;2024-01-11T14:07:06;1.50;;;1.00;;
56171;SDS011;42052;41.634;-0.946;2024-01-11T14:09:32;0.80;;;0.70;;
56171;SDS011;42052;41.634;-0.946;2024-01-11T14:11:58;1.23;;;0.82;;
56171;SDS011;42052;41.634;-0.946;2024-01-11T14:14:24;1.58;;;1.00;;
56171;SDS011;42052;41.634;-0.946;2024-01-11T14:16:50;1.50;;;0.88;;
56171;SDS011;42052;41.634;-0.946;2024-01-11T14:19:16;1.77;;;0.90;;
56171;SDS011;42052;41.634;-0.946;2024-01-11T14:21:42;1.00;;;0.60;;
56171;SDS011;42052;41.634;-0.946;2024-01-11T14:24:08;1.27;;;0.90;;
56171;SDS011;42052;41.634;-0.946;2024-01-11T14:26:34;1.65;;;0.90;;
56171;SDS011;42052;41.634;-0.946;2024-01-11T14:29:00;0.70;;;0.70;;
56171;SDS011;42052;41.634;-0.946;2024-01-11T14:31:27;1.23;;;0.85;;
56171;SDS011;42052;41.634;-0.946;2024-01-11T14:33:53;2.50;;;1.20;;
56171;SDS011;42052;41.634;-0.946;2024-01-11T14:36:19;1.77;;;1.00;;
56171;SDS011;42052;41.634;-0.946;2024-01-11T14:38:45;2.63;;;1.10;;